createdAt,value
2023-02-27T05:12:29.715Z,-2.41
2023-02-27T05:13:30.917Z,-2.33
2023-02-27T05:14:30.845Z,-2.33
2023-02-27T05:15:30.894Z,-2.35
2023-02-27T05:16:30.870Z,-2.35
2023-02-27T05:17:30.831Z,-2.44
2023-02-27T05:18:30.830Z,-2.46
2023-02-27T05:19:30.825Z,-2.43
2023-02-27T05:20:30.793Z,-2.48
2023-02-27T05:21:30.876Z,-2.56
2023-02-27T05:22:30.751Z,-2.58
2023-02-27T05:23:30.725Z,-2.62
2023-02-27T05:24:30.741Z,-2.56
2023-02-27T05:25:30.774Z,-2.62
2023-02-27T05:26:30.766Z,-2.62
2023-02-27T05:27:30.690Z,-2.59
2023-02-27T05:28:30.713Z,-2.61
2023-02-27T05:29:30.738Z,-2.68
2023-02-27T05:30:30.693Z,-2.66
2023-02-27T05:31:30.830Z,-2.61
2023-02-27T05:32:30.743Z,-2.68
2023-02-27T05:33:30.657Z,-2.65
2023-02-27T05:34:30.622Z,-2.68
2023-02-27T05:35:30.674Z,-2.61
2023-02-27T05:36:30.554Z,-2.66
2023-02-27T05:37:30.606Z,-2.68
2023-02-27T05:38:30.597Z,-2.71
2023-02-27T05:39:30.552Z,-2.68
2023-02-27T05:40:31.567Z,-2.64
2023-02-27T05:41:30.567Z,-2.65
2023-02-27T05:42:30.540Z,-2.61
2023-02-27T05:43:30.533Z,-2.69
2023-02-27T05:44:30.545Z,-2.61
2023-02-27T05:45:30.518Z,-2.71
2023-02-27T05:46:31.566Z,-2.72
2023-02-27T05:47:30.475Z,-2.64
2023-02-27T05:48:30.486Z,-2.66
2023-02-27T05:49:30.475Z,-2.65
2023-02-27T05:50:30.454Z,-2.72
2023-02-27T05:51:30.439Z,-2.61
2023-02-27T05:52:30.399Z,-2.66
2023-02-27T05:53:30.436Z,-2.68
2023-02-27T05:54:30.362Z,-2.68
2023-02-27T05:55:30.386Z,-2.59
2023-02-27T05:56:30.381Z,-2.64
2023-02-27T05:57:30.388Z,-2.62
2023-02-27T05:58:30.372Z,-2.66
2023-02-27T05:59:30.288Z,-2.69
2023-02-27T06:00:31.321Z,-2.66
2023-02-27T06:01:30.342Z,-2.62
2023-02-27T06:02:30.373Z,-2.69
2023-02-27T06:03:30.368Z,-2.80
2023-02-27T06:04:30.284Z,-2.64
2023-02-27T06:05:30.240Z,-2.71
2023-02-27T06:06:30.241Z,-2.64
2023-02-27T06:07:30.253Z,-2.72
2023-02-27T06:08:30.210Z,-2.68
2023-02-27T06:09:30.213Z,-2.66
2023-02-27T06:10:30.216Z,-2.68
2023-02-27T06:11:30.217Z,-2.69
2023-02-27T06:12:30.230Z,-2.68
2023-02-27T06:13:30.224Z,-2.72
2023-02-27T06:14:30.224Z,-2.65
2023-02-27T06:15:30.154Z,-2.68
2023-02-27T06:16:30.679Z,-2.69
2023-02-27T06:17:30.123Z,-2.72
2023-02-27T06:18:30.113Z,-2.74
2023-02-27T06:19:30.195Z,-2.76
2023-02-27T06:20:30.095Z,-2.82
2023-02-27T06:21:30.088Z,-2.77
2023-02-27T06:22:30.074Z,-2.79
2023-02-27T06:23:30.067Z,-2.77
2023-02-27T06:24:30.092Z,-2.95
2023-02-27T06:25:30.069Z,-2.89
2023-02-27T06:26:30.122Z,-2.77
2023-02-27T06:27:30.018Z,-2.77
2023-02-27T06:28:30.002Z,-2.86
2023-02-27T06:29:29.995Z,-2.83
2023-02-27T06:30:29.997Z,-2.77
2023-02-27T06:31:29.978Z,-2.74
2023-02-27T06:32:29.938Z,-2.89
2023-02-27T06:33:29.974Z,-2.94
2023-02-27T06:34:29.952Z,-2.95
2023-02-27T06:35:29.919Z,-2.77
2023-02-27T06:36:30.223Z,-2.87
2023-02-27T06:37:29.903Z,-2.61
2023-02-27T06:38:29.885Z,-2.50
2023-02-27T06:39:29.901Z,-2.06
2023-02-27T06:40:29.866Z,-1.80
2023-02-27T06:41:29.848Z,-1.29
2023-02-27T06:42:29.848Z,-1.08
2023-02-27T06:43:29.814Z,-0.78
2023-02-27T06:44:29.820Z,-0.45
2023-02-27T06:45:29.814Z,-0.24
2023-02-27T06:46:30.019Z,-0.05
2023-02-27T06:47:29.759Z,-0.01
2023-02-27T06:48:29.785Z,0.05
2023-02-27T06:49:29.756Z,0.04
2023-02-27T06:50:29.762Z,0.04
2023-02-27T06:51:29.772Z,0.04
2023-02-27T06:52:29.749Z,0.22
2023-02-27T06:53:29.753Z,0.25
2023-02-27T06:54:29.700Z,0.40
2023-02-27T06:55:29.689Z,0.31
2023-02-27T06:56:29.786Z,0.33
2023-02-27T06:57:29.678Z,0.48
2023-02-27T06:58:29.696Z,0.52
2023-02-27T06:59:29.685Z,0.64
2023-02-27T07:00:29.643Z,0.77
2023-02-27T07:01:29.740Z,0.96
2023-02-27T07:02:29.641Z,1.18
2023-02-27T07:03:29.610Z,1.31
2023-02-27T07:04:29.669Z,1.44
2023-02-27T07:05:29.588Z,1.63
2023-02-27T07:07:35.316Z,1.61
2023-02-27T07:07:36.017Z,1.63
2023-02-27T07:08:30.526Z,1.60
2023-02-27T07:09:29.547Z,1.54
2023-02-27T07:10:29.553Z,1.50
2023-02-27T07:11:29.505Z,1.60
2023-02-27T07:12:29.475Z,1.56
2023-02-27T07:13:29.487Z,1.85
2023-02-27T07:14:29.485Z,2.02
2023-02-27T07:15:29.520Z,2.23
2023-02-27T07:16:29.666Z,2.38
2023-02-27T07:17:29.471Z,2.53
2023-02-27T07:18:29.402Z,2.73
2023-02-27T07:19:29.489Z,2.74
2023-02-27T07:20:29.427Z,2.87
2023-02-27T07:21:30.424Z,2.83
2023-02-27T07:22:29.427Z,2.92
2023-02-27T07:23:29.381Z,3.05
2023-02-27T07:24:29.382Z,2.97
2023-02-27T07:25:29.370Z,2.98
2023-02-27T07:26:30.405Z,3.05
2023-02-27T07:27:29.328Z,3.10
2023-02-27T07:28:29.430Z,3.16
2023-02-27T07:29:29.341Z,3.30
2023-02-27T07:30:29.322Z,3.17
2023-02-27T07:31:29.405Z,3.15
2023-02-27T07:32:29.346Z,3.54
2023-02-27T07:33:29.331Z,3.80
2023-02-27T07:34:29.267Z,3.98
2023-02-27T07:35:29.288Z,4.10
2023-02-27T07:36:29.442Z,4.14
2023-02-27T07:37:29.236Z,4.44
2023-02-27T07:38:29.252Z,4.47
2023-02-27T07:39:29.244Z,4.54
2023-02-27T07:40:29.197Z,4.54
2023-02-27T07:41:30.977Z,4.51
2023-02-27T07:43:01.595Z,4.47
2023-02-27T07:43:29.220Z,4.46
2023-02-27T07:44:30.241Z,4.35
2023-02-27T07:45:29.200Z,4.38
2023-02-27T07:46:29.592Z,4.51
2023-02-27T07:47:29.204Z,4.56
2023-02-27T07:48:29.165Z,4.80
2023-02-27T07:49:29.130Z,4.90
2023-02-27T07:50:29.106Z,4.91
2023-02-27T07:51:29.172Z,4.96
2023-02-27T07:53:29.098Z,5.14
2023-02-27T07:54:29.049Z,4.93
2023-02-27T07:55:29.213Z,4.87
2023-02-27T07:56:30.431Z,4.71
2023-02-27T07:57:29.152Z,4.26
2023-02-27T07:58:29.080Z,4.02
2023-02-27T07:59:29.042Z,3.72
2023-02-27T08:00:29.003Z,3.74
2023-02-27T08:01:29.054Z,3.72
2023-02-27T08:02:29.060Z,3.62
2023-02-27T08:03:28.996Z,3.34
2023-02-27T08:04:29.052Z,3.12
2023-02-27T08:05:29.924Z,3.20
2023-02-27T08:06:29.285Z,3.02
2023-02-27T08:07:28.934Z,2.95
2023-02-27T08:08:28.979Z,2.68
2023-02-27T08:09:28.902Z,2.55
2023-02-27T08:10:29.028Z,2.74
2023-02-27T08:11:29.293Z,3.19
2023-02-27T08:12:28.854Z,3.84
2023-02-27T08:13:58.959Z,4.50
2023-02-27T08:14:30.865Z,5.08
2023-02-27T08:15:28.944Z,5.48
2023-02-27T08:16:31.037Z,5.58
2023-02-27T08:17:28.809Z,5.87
2023-02-27T08:18:28.789Z,5.75
2023-02-27T08:19:28.756Z,5.87
2023-02-27T08:20:28.794Z,6.33
2023-02-27T08:21:29.176Z,6.60
2023-02-27T08:22:28.742Z,6.83
2023-02-27T08:23:28.759Z,6.76
2023-02-27T08:24:28.679Z,6.38
2023-02-27T08:25:28.721Z,5.98
2023-02-27T08:26:29.151Z,5.88
2023-02-27T08:27:28.659Z,5.63
2023-02-27T08:28:28.661Z,5.58
2023-02-27T08:29:28.681Z,5.62
2023-02-27T08:30:28.628Z,5.58
2023-02-27T08:31:28.725Z,5.73
2023-02-27T08:32:28.723Z,5.84
2023-02-27T08:33:28.607Z,5.62
2023-02-27T08:34:28.614Z,5.74
2023-02-27T08:35:28.648Z,5.81
2023-02-27T08:36:28.843Z,5.59
2023-02-27T08:37:28.591Z,5.52
2023-02-27T08:38:28.553Z,5.37
2023-02-27T08:39:28.571Z,5.44
2023-02-27T08:40:28.554Z,5.22
2023-02-27T08:41:28.574Z,5.24
2023-02-27T08:42:28.516Z,5.23
2023-02-27T08:43:28.529Z,5.30
2023-02-27T08:44:28.542Z,5.30
2023-02-27T08:45:28.534Z,5.26
2023-02-27T08:46:28.876Z,5.19
2023-02-27T08:47:28.471Z,5.45
2023-02-27T08:48:28.438Z,5.23
2023-02-27T08:49:28.408Z,5.32
2023-02-27T08:50:28.501Z,5.32
2023-02-27T08:51:28.905Z,4.93
2023-02-27T08:52:28.433Z,5.22
2023-02-27T08:53:28.532Z,5.51
2023-02-27T08:54:28.386Z,5.78
2023-02-27T08:55:28.394Z,6.11
2023-02-27T08:56:28.702Z,6.21
2023-02-27T08:57:28.381Z,6.20
2023-02-27T08:58:28.342Z,6.32
2023-02-27T08:59:28.309Z,6.32
2023-02-27T09:00:28.330Z,6.20
2023-02-27T09:01:28.843Z,6.02
2023-02-27T09:02:29.332Z,6.06
2023-02-27T09:03:28.302Z,6.08
2023-02-27T09:04:28.277Z,5.84
2023-02-27T09:05:28.295Z,5.59
2023-02-27T09:06:28.588Z,5.29
2023-02-27T09:07:28.251Z,5.32
2023-02-27T09:08:28.298Z,5.20
2023-02-27T09:09:28.262Z,5.24
2023-02-27T09:10:28.238Z,5.06
2023-02-27T09:11:28.521Z,5.12
2023-02-27T09:12:28.188Z,5.11
2023-02-27T09:13:28.188Z,5.23
2023-02-27T09:14:28.132Z,5.67
2023-02-27T09:15:28.957Z,6.01
2023-02-27T09:16:28.656Z,6.36
2023-02-27T09:17:28.189Z,6.65
2023-02-27T09:18:28.140Z,6.79
2023-02-27T09:19:29.441Z,7.08
2023-02-27T09:20:29.693Z,7.09
2023-02-27T09:21:28.635Z,6.82
2023-02-27T09:22:28.600Z,6.89
2023-02-27T09:23:28.446Z,6.83
2023-02-27T09:24:28.009Z,6.72
2023-02-27T09:25:28.055Z,6.72
2023-02-27T09:26:41.977Z,6.87
2023-02-27T09:27:29.999Z,6.86
2023-02-27T09:28:27.971Z,6.83
2023-02-27T09:29:27.960Z,6.60
2023-02-27T09:30:28.810Z,6.75
2023-02-27T09:31:30.001Z,6.76
2023-02-27T09:32:28.292Z,6.76
2023-02-27T09:33:29.245Z,6.69
2023-02-27T09:34:28.973Z,7.09
2023-02-27T09:35:28.005Z,7.19
2023-02-27T09:36:28.279Z,6.91
2023-02-27T09:37:27.986Z,6.90
2023-02-27T09:38:27.916Z,7.26
2023-02-27T09:39:27.996Z,7.30
2023-02-27T09:40:27.881Z,7.27
2023-02-27T09:41:28.270Z,7.16
2023-02-27T09:42:27.875Z,7.12
2023-02-27T09:43:27.891Z,6.99
2023-02-27T09:44:43.509Z,6.75
2023-02-27T09:45:31.269Z,7.07
2023-02-27T09:46:28.191Z,7.44
2023-02-27T09:47:27.825Z,7.95
2023-02-27T09:48:28.597Z,7.96
2023-02-27T09:49:27.835Z,7.92
2023-02-27T09:50:27.869Z,8.10
2023-02-27T09:51:28.475Z,7.94
2023-02-27T09:52:27.792Z,7.69
2023-02-27T09:53:27.771Z,7.50
2023-02-27T09:54:28.055Z,7.71
2023-02-27T09:55:28.715Z,7.69
2023-02-27T09:56:28.338Z,7.67
2023-02-27T09:57:27.890Z,7.86
2023-02-27T09:58:28.441Z,7.76
2023-02-27T09:59:27.963Z,7.91
2023-02-27T10:00:27.938Z,7.85
2023-02-27T10:01:29.691Z,8.00
2023-02-27T10:02:29.201Z,7.27
2023-02-27T10:03:28.289Z,6.54
2023-02-27T10:04:28.690Z,6.68
2023-02-27T10:05:29.355Z,7.16
2023-02-27T10:06:29.936Z,7.08
2023-02-27T10:07:29.334Z,6.61
2023-02-27T10:08:27.849Z,6.08
2023-02-27T10:09:28.711Z,6.60
2023-02-27T10:10:27.880Z,7.33
2023-02-27T10:11:27.657Z,7.51
2023-02-27T10:12:27.509Z,7.89
2023-02-27T10:13:27.617Z,7.16
2023-02-27T10:14:27.569Z,6.27
2023-02-27T10:15:27.618Z,6.75
2023-02-27T10:16:27.957Z,7.36
2023-02-27T10:17:28.433Z,8.09
2023-02-27T10:18:29.788Z,8.55
2023-02-27T10:19:29.489Z,8.98
2023-02-27T10:20:29.423Z,9.56
2023-02-27T10:21:36.061Z,9.88
2023-02-27T10:22:29.815Z,10.07
2023-02-27T10:23:27.454Z,10.24
2023-02-27T10:24:27.705Z,10.04
2023-02-27T10:25:32.020Z,10.04
2023-02-27T10:26:28.492Z,10.10
2023-02-27T10:27:27.661Z,10.29
2023-02-27T10:28:28.411Z,10.22
2023-02-27T10:29:27.510Z,10.13
2023-02-27T10:30:34.954Z,8.98
2023-02-27T10:31:30.230Z,9.40
2023-02-27T10:32:27.414Z,10.09
2023-02-27T10:33:28.440Z,10.16
2023-02-27T10:34:28.474Z,10.25
2023-02-27T10:35:27.642Z,10.68
2023-02-27T10:36:34.157Z,10.78
2023-02-27T10:37:29.488Z,10.04
2023-02-27T10:38:27.419Z,10.80
2023-02-27T10:39:27.333Z,9.65
2023-02-27T10:40:27.377Z,8.06
2023-02-27T10:41:29.582Z,7.95
2023-02-27T10:42:27.304Z,8.50
2023-02-27T10:43:27.164Z,8.36
2023-02-27T10:44:27.278Z,7.15
2023-02-27T10:45:27.297Z,7.95
2023-02-27T10:46:27.924Z,9.13
2023-02-27T10:47:27.335Z,9.37
2023-02-27T10:48:27.380Z,8.67
2023-02-27T10:49:27.730Z,8.47
2023-02-27T10:50:27.431Z,7.94
2023-02-27T10:51:27.436Z,7.34
2023-02-27T10:52:27.145Z,7.12
2023-02-27T10:53:27.694Z,6.45
2023-02-27T10:54:27.273Z,5.98
2023-02-27T10:55:27.141Z,7.24
2023-02-27T10:56:27.482Z,8.14
2023-02-27T10:57:28.331Z,7.47
2023-02-27T10:58:28.479Z,7.52
2023-02-27T10:59:27.102Z,7.01
2023-02-27T11:00:27.273Z,5.63
2023-02-27T11:01:27.541Z,6.03
2023-02-27T11:02:27.041Z,6.03
2023-02-27T11:03:27.419Z,6.25
2023-02-27T11:04:27.094Z,6.99
2023-02-27T11:05:27.177Z,7.23
2023-02-27T11:06:26.951Z,6.72
2023-02-27T11:07:27.167Z,7.11
2023-02-27T11:08:27.307Z,7.14
2023-02-27T11:09:26.968Z,7.86
2023-02-27T11:10:26.994Z,8.24
2023-02-27T11:11:27.387Z,8.98
2023-02-27T11:12:26.879Z,9.24
2023-02-27T11:13:26.852Z,9.59
2023-02-27T11:14:26.843Z,9.68
2023-02-27T11:15:27.112Z,9.70
2023-02-27T11:16:26.885Z,9.03
2023-02-27T11:17:26.888Z,8.94
2023-02-27T11:18:26.970Z,8.86
2023-02-27T11:19:27.030Z,7.07
2023-02-27T11:20:26.939Z,7.19
2023-02-27T11:21:27.329Z,7.76
2023-02-27T11:22:26.754Z,8.27
2023-02-27T11:23:26.968Z,8.75
2023-02-27T11:24:26.816Z,8.82
2023-02-27T11:25:26.803Z,8.93
2023-02-27T11:26:26.848Z,8.65
2023-02-27T11:27:26.803Z,8.39
2023-02-27T11:28:26.723Z,8.75
2023-02-27T11:29:26.657Z,8.93
2023-02-27T11:30:26.635Z,9.00
2023-02-27T11:31:27.170Z,9.15
2023-02-27T11:32:26.753Z,9.10
2023-02-27T11:33:26.680Z,9.48
2023-02-27T11:34:26.671Z,9.62
2023-02-27T11:35:26.610Z,9.89
2023-02-27T11:36:26.615Z,9.92
2023-02-27T11:37:26.612Z,10.04
2023-02-27T11:38:26.571Z,10.22
2023-02-27T11:39:26.602Z,9.85
2023-02-27T11:40:26.551Z,9.89
2023-02-27T11:41:26.854Z,9.99
2023-02-27T11:42:26.568Z,10.17
2023-02-27T11:43:26.658Z,10.14
2023-02-27T11:44:50.274Z,10.10
2023-02-27T11:46:13.911Z,10.20
2023-02-27T11:46:43.273Z,10.46
2023-02-27T11:47:27.662Z,10.47
2023-02-27T11:48:26.456Z,10.55
2023-02-27T11:49:26.411Z,10.54
2023-02-27T11:50:26.519Z,10.66
2023-02-27T11:51:26.795Z,10.66
2023-02-27T11:52:27.415Z,10.07
2023-02-27T11:53:26.413Z,10.52
2023-02-27T11:54:26.416Z,10.55
2023-02-27T11:55:26.399Z,10.35
2023-02-27T11:56:26.408Z,10.24
2023-02-27T11:57:26.518Z,9.45
2023-02-27T11:58:26.420Z,8.88
2023-02-27T11:59:26.481Z,8.55
2023-02-27T12:00:26.374Z,7.94
2023-02-27T12:01:26.475Z,8.91
2023-02-27T12:02:26.425Z,9.45
2023-02-27T12:03:26.256Z,9.06
2023-02-27T12:04:26.256Z,9.24
2023-02-27T12:05:26.248Z,9.88
2023-02-27T12:06:26.288Z,10.36
2023-02-27T12:07:26.180Z,10.80
2023-02-27T12:08:26.246Z,10.43
2023-02-27T12:09:26.268Z,9.70
2023-02-27T12:10:26.219Z,10.25
2023-02-27T12:11:26.155Z,10.44
2023-02-27T12:12:26.192Z,10.87
2023-02-27T12:13:26.226Z,11.09
2023-02-27T12:14:26.163Z,11.11
2023-02-27T12:15:26.114Z,10.87
2023-02-27T12:16:26.693Z,10.99
2023-02-27T12:17:26.172Z,11.17
2023-02-27T12:18:26.140Z,11.42
2023-02-27T12:19:26.085Z,11.24
2023-02-27T12:20:26.198Z,11.30
2023-02-27T12:21:26.108Z,10.90
2023-02-27T12:22:26.054Z,10.20
2023-02-27T12:23:26.041Z,9.62
2023-02-27T12:24:26.118Z,9.19
2023-02-27T12:25:26.051Z,8.82
2023-02-27T12:26:26.499Z,8.45
2023-02-27T12:27:26.234Z,8.43
2023-02-27T12:28:26.052Z,8.12
2023-02-27T12:29:25.962Z,8.70
2023-02-27T12:30:26.372Z,9.19
2023-02-27T12:31:26.597Z,8.80
2023-02-27T12:32:26.181Z,7.95
2023-02-27T12:33:26.131Z,7.55
2023-02-27T12:34:25.994Z,7.34
2023-02-27T12:35:26.286Z,7.15
2023-02-27T12:36:25.921Z,7.29
2023-02-27T12:37:25.943Z,7.14
2023-02-27T12:38:25.930Z,8.07
2023-02-27T12:39:25.880Z,9.06
2023-02-27T12:40:25.857Z,9.71
2023-02-27T12:41:26.291Z,10.36
2023-02-27T12:42:25.858Z,10.60
2023-02-27T12:43:25.885Z,10.35
2023-02-27T12:44:25.804Z,10.32
2023-02-27T12:45:25.994Z,10.47
2023-02-27T12:46:25.803Z,10.68
2023-02-27T12:47:25.771Z,11.09
2023-02-27T12:48:25.799Z,11.42
2023-02-27T12:49:25.715Z,11.79
2023-02-27T12:50:25.793Z,12.05
2023-02-27T12:51:26.192Z,12.18
2023-02-27T12:52:26.091Z,12.00
2023-02-27T12:53:25.792Z,11.56
2023-02-27T12:54:25.946Z,11.69
2023-02-27T12:55:26.094Z,11.48
2023-02-27T12:56:25.670Z,11.27
2023-02-27T12:57:25.737Z,11.12
2023-02-27T12:58:25.698Z,10.52
2023-02-27T12:59:25.751Z,10.54
2023-02-27T13:00:25.608Z,10.73
2023-02-27T13:01:26.268Z,11.01
2023-02-27T13:02:25.757Z,10.75
2023-02-27T13:03:25.661Z,10.99
2023-02-27T13:04:25.582Z,10.93
2023-02-27T13:05:25.898Z,11.11
2023-02-27T13:06:25.655Z,11.01
2023-02-27T13:07:25.808Z,11.01
2023-02-27T13:08:25.612Z,11.03
2023-02-27T13:09:25.722Z,11.08
2023-02-27T13:10:26.637Z,10.46
2023-02-27T13:11:26.293Z,9.58
2023-02-27T13:12:27.005Z,8.78
2023-02-27T13:13:25.909Z,9.13
2023-02-27T13:14:25.774Z,9.70
2023-02-27T13:15:25.513Z,9.60
2023-02-27T13:16:25.765Z,9.10
2023-02-27T13:17:25.479Z,8.68
2023-02-27T13:18:25.543Z,8.46
2023-02-27T13:19:25.478Z,8.09
2023-02-27T13:20:25.602Z,8.20
2023-02-27T13:21:25.632Z,8.45
2023-02-27T13:22:25.451Z,8.65
2023-02-27T13:23:25.406Z,9.23
2023-02-27T13:24:25.423Z,9.70
2023-02-27T13:25:25.384Z,9.91
2023-02-27T13:26:25.380Z,9.60
2023-02-27T13:27:25.378Z,9.95
2023-02-27T13:28:25.562Z,10.14
2023-02-27T13:29:25.397Z,9.91
2023-02-27T13:30:25.267Z,9.50
2023-02-27T13:31:25.412Z,9.32
2023-02-27T13:32:36.536Z,8.94
2023-02-27T13:33:27.316Z,8.57
2023-02-27T13:34:25.320Z,8.52
2023-02-27T13:35:25.286Z,8.31
2023-02-27T13:36:25.236Z,7.92
2023-02-27T13:37:25.715Z,7.36
2023-02-27T13:38:25.218Z,7.33
2023-02-27T13:39:25.264Z,7.26
2023-02-27T13:40:25.300Z,7.19
2023-02-27T13:41:25.231Z,7.21
2023-02-27T13:42:25.224Z,6.91
2023-02-27T13:43:25.189Z,6.72
2023-02-27T13:44:25.164Z,7.16
2023-02-27T13:45:25.126Z,7.23
2023-02-27T13:46:25.310Z,7.00
2023-02-27T13:47:25.115Z,6.76
2023-02-27T13:48:25.116Z,7.24
2023-02-27T13:49:29.243Z,7.50
2023-02-27T13:50:26.036Z,7.24
2023-02-27T13:51:25.337Z,7.32
2023-02-27T13:52:25.035Z,7.41
2023-02-27T13:53:25.049Z,7.57
2023-02-27T13:54:25.180Z,7.86
2023-02-27T13:55:25.081Z,8.39
2023-02-27T13:56:25.073Z,8.65
2023-02-27T13:57:25.089Z,8.58
2023-02-27T13:58:24.995Z,8.61
2023-02-27T13:59:24.957Z,8.83
2023-02-27T14:00:25.039Z,8.88
2023-02-27T14:01:25.057Z,8.91
2023-02-27T14:02:25.027Z,9.15
2023-02-27T14:03:24.973Z,9.17
2023-02-27T14:04:24.941Z,8.80
2023-02-27T14:05:25.014Z,8.20
2023-02-27T14:06:24.897Z,7.91
2023-02-27T14:07:24.890Z,7.71
2023-02-27T14:08:24.947Z,7.24
2023-02-27T14:09:24.859Z,6.71
2023-02-27T14:10:24.913Z,6.57
2023-02-27T14:11:24.912Z,6.58
2023-02-27T14:12:27.088Z,6.79
2023-02-27T14:13:24.877Z,7.30
2023-02-27T14:14:24.909Z,7.86
2023-02-27T14:15:24.825Z,8.06
2023-02-27T14:16:24.829Z,8.46
2023-02-27T14:17:24.783Z,8.34
2023-02-27T14:18:33.594Z,7.92
2023-02-27T14:19:27.005Z,8.13
2023-02-27T14:20:24.739Z,8.06
2023-02-27T14:21:25.076Z,7.42
2023-02-27T14:22:24.747Z,6.71
2023-02-27T14:23:24.753Z,6.17
2023-02-27T14:24:24.648Z,5.58
2023-02-27T14:25:24.701Z,5.52
2023-02-27T14:26:24.846Z,5.67
2023-02-27T14:27:24.711Z,5.59
2023-02-27T14:28:24.732Z,5.78
2023-02-27T14:29:24.767Z,5.74
2023-02-27T14:30:24.576Z,5.77
2023-02-27T14:31:24.647Z,5.85
2023-02-27T14:32:24.678Z,5.85
2023-02-27T14:33:39.172Z,5.77
2023-02-27T14:34:26.561Z,5.60
2023-02-27T14:35:24.662Z,5.22
2023-02-27T14:36:24.619Z,5.24
2023-02-27T14:37:24.564Z,5.17
2023-02-27T14:38:24.579Z,5.20
2023-02-27T14:39:24.583Z,5.60
2023-02-27T14:40:29.684Z,6.05
2023-02-27T14:41:26.754Z,6.53
2023-02-27T14:42:24.548Z,6.93
2023-02-27T14:43:24.432Z,7.29
2023-02-27T14:44:24.427Z,7.73
2023-02-27T14:45:24.679Z,7.91
2023-02-27T14:46:24.499Z,8.21
2023-02-27T14:47:24.437Z,8.13
2023-02-27T14:48:24.442Z,7.95
2023-02-27T14:49:24.405Z,7.82
2023-02-27T14:50:24.427Z,7.60
2023-02-27T14:51:24.393Z,6.90
2023-02-27T14:52:24.385Z,6.40
2023-02-27T14:53:24.422Z,6.35
2023-02-27T14:54:24.376Z,6.35
2023-02-27T14:55:24.376Z,6.30
2023-02-27T14:56:24.326Z,6.17
2023-02-27T14:57:25.738Z,6.08
2023-02-27T14:58:24.339Z,5.93
2023-02-27T14:59:24.320Z,5.90
2023-02-27T15:00:24.284Z,5.92
2023-02-27T15:01:24.326Z,5.88
2023-02-27T15:02:24.296Z,5.96
2023-02-27T15:03:24.316Z,5.90
2023-02-27T15:04:24.326Z,5.90
2023-02-27T15:05:24.277Z,5.93
2023-02-27T15:06:24.239Z,5.87
2023-02-27T15:07:24.197Z,5.88
2023-02-27T15:08:24.168Z,5.81
2023-02-27T15:09:24.177Z,5.81
2023-02-27T15:10:24.950Z,5.83
2023-02-27T15:11:24.179Z,5.88
2023-02-27T15:12:25.147Z,5.80
2023-02-27T15:13:24.206Z,5.65
2023-02-27T15:14:24.200Z,5.56
2023-02-27T15:15:24.191Z,5.58
2023-02-27T15:16:24.162Z,5.59
2023-02-27T15:17:24.055Z,5.35
2023-02-27T15:18:24.058Z,5.42
2023-02-27T15:19:24.042Z,5.33
2023-02-27T15:20:24.075Z,5.40
2023-02-27T15:21:24.080Z,5.45
2023-02-27T15:22:38.042Z,5.49
2023-02-27T15:23:26.056Z,5.51
2023-02-27T15:24:24.092Z,5.49
2023-02-27T15:25:24.021Z,5.51
2023-02-27T15:26:23.970Z,5.51
2023-02-27T15:27:24.013Z,5.42
2023-02-27T15:28:23.952Z,5.33
2023-02-27T15:29:23.956Z,5.27
2023-02-27T15:30:23.958Z,5.29
2023-02-27T15:31:24.189Z,5.20
2023-02-27T15:32:23.956Z,5.32
2023-02-27T15:33:23.890Z,5.27
2023-02-27T15:34:23.875Z,5.24
2023-02-27T15:35:23.941Z,5.17
2023-02-27T15:36:23.915Z,5.24
2023-02-27T15:37:23.879Z,5.29
2023-02-27T15:38:23.871Z,5.41
2023-02-27T15:39:23.827Z,5.35
2023-02-27T15:40:23.863Z,5.26
2023-02-27T15:41:23.868Z,5.19
2023-02-27T15:42:23.790Z,5.05
2023-02-27T15:43:23.798Z,4.99
2023-02-27T15:44:23.796Z,4.90
2023-02-27T15:45:23.777Z,4.93
2023-02-27T15:46:23.759Z,4.86
2023-02-27T15:47:23.775Z,4.75
2023-02-27T15:48:23.753Z,4.69
2023-02-27T15:49:23.731Z,4.74
2023-02-27T15:50:23.700Z,4.71
2023-02-27T15:51:23.696Z,4.77
2023-02-27T15:52:23.701Z,4.69
2023-02-27T15:53:23.646Z,4.65
2023-02-27T15:54:23.802Z,4.67
2023-02-27T15:55:23.648Z,4.64
2023-02-27T15:56:23.624Z,4.74
2023-02-27T15:57:23.642Z,4.65
2023-02-27T15:58:23.635Z,4.71
2023-02-27T15:59:23.612Z,4.59
2023-02-27T16:00:23.615Z,4.61
2023-02-27T16:01:23.717Z,4.54
2023-02-27T16:02:23.579Z,4.50
2023-02-27T16:03:23.603Z,4.25
2023-02-27T16:04:23.487Z,4.36
2023-02-27T16:05:23.529Z,4.36
2023-02-27T16:06:23.618Z,4.13
2023-02-27T16:07:24.571Z,3.92
2023-02-27T16:08:23.508Z,3.88
2023-02-27T16:09:23.447Z,3.75
2023-02-27T16:10:23.524Z,3.92
2023-02-27T16:11:23.483Z,3.90
2023-02-27T16:12:23.509Z,3.93
2023-02-27T16:13:23.475Z,3.92
2023-02-27T16:14:25.558Z,3.95
2023-02-27T16:15:23.370Z,3.92
2023-02-27T16:16:23.442Z,3.82
2023-02-27T16:17:23.441Z,3.75
2023-02-27T16:18:23.442Z,3.81
2023-02-27T16:19:23.480Z,3.86
2023-02-27T16:20:23.397Z,3.70
2023-02-27T16:21:23.388Z,3.64
2023-02-27T16:22:23.367Z,3.57
2023-02-27T16:23:23.372Z,3.68
2023-02-27T16:24:23.375Z,3.64
2023-02-27T16:25:23.310Z,3.59
2023-02-27T16:26:23.323Z,3.56
2023-02-27T16:27:23.375Z,3.44
2023-02-27T16:28:23.282Z,3.42
2023-02-27T16:29:23.317Z,3.33
2023-02-27T16:30:23.262Z,3.34
2023-02-27T16:31:23.291Z,3.23
2023-02-27T16:32:23.273Z,3.37
2023-02-27T16:33:23.252Z,3.41
2023-02-27T16:34:24.667Z,3.33
2023-02-27T16:35:23.243Z,3.25
2023-02-27T16:36:23.319Z,3.15
2023-02-27T16:37:23.249Z,3.22
2023-02-27T16:38:23.141Z,2.99
2023-02-27T16:39:23.272Z,2.92
2023-02-27T16:40:23.272Z,2.92
2023-02-27T16:41:23.323Z,2.98
2023-02-27T16:42:23.148Z,2.94
2023-02-27T16:43:23.080Z,2.99
2023-02-27T16:44:23.074Z,2.84
2023-02-27T16:45:23.141Z,2.86
2023-02-27T16:46:23.081Z,2.80
2023-02-27T16:47:23.090Z,2.86
2023-02-27T16:48:23.097Z,2.71
2023-02-27T16:49:23.055Z,2.62
2023-02-27T16:50:23.076Z,2.53
2023-02-27T16:51:23.045Z,2.55
2023-02-27T16:52:22.977Z,2.55
2023-02-27T16:53:23.003Z,2.47
2023-02-27T16:54:22.981Z,2.51
2023-02-27T16:55:23.888Z,2.40
2023-02-27T16:56:35.902Z,2.41
2023-02-27T16:57:24.986Z,2.38
2023-02-27T16:58:23.026Z,2.38
2023-02-27T16:59:23.053Z,2.43
2023-02-27T17:00:22.947Z,2.51
2023-02-27T17:01:23.036Z,2.56
2023-02-27T17:02:22.951Z,2.62
2023-02-27T17:03:22.873Z,2.68
2023-02-27T17:04:25.935Z,2.62
2023-02-27T17:05:23.891Z,2.61
2023-02-27T17:06:22.868Z,2.66
2023-02-27T17:07:23.434Z,2.76
2023-02-27T17:08:22.890Z,2.74
2023-02-27T17:09:22.873Z,2.65
2023-02-27T17:10:22.857Z,2.59
2023-02-27T17:11:22.829Z,2.59
2023-02-27T17:12:22.836Z,2.56
2023-02-27T17:13:22.750Z,2.63
2023-02-27T17:14:23.816Z,2.66
2023-02-27T17:15:22.804Z,2.69
2023-02-27T17:16:22.874Z,2.77
2023-02-27T17:17:22.786Z,2.77
2023-02-27T17:18:22.811Z,2.77
2023-02-27T17:19:22.743Z,2.81
2023-02-27T17:20:22.758Z,2.73
2023-02-27T17:21:22.760Z,2.77
2023-02-27T17:22:22.709Z,2.74
2023-02-27T17:23:22.682Z,2.63
2023-02-27T17:24:22.730Z,2.69
2023-02-27T17:25:22.687Z,2.68
2023-02-27T17:26:22.724Z,2.66
2023-02-27T17:27:22.740Z,2.59
2023-02-27T17:28:22.657Z,2.73
2023-02-27T17:29:22.615Z,2.66
2023-02-27T17:30:22.728Z,2.68
2023-02-27T17:31:23.007Z,2.61
2023-02-27T17:32:22.700Z,2.66
2023-02-27T17:33:22.590Z,2.58
2023-02-27T17:34:22.557Z,2.48
2023-02-27T17:35:22.569Z,2.62
2023-02-27T17:36:22.589Z,2.68
2023-02-27T17:37:22.597Z,2.62
2023-02-27T17:38:22.639Z,2.61
2023-02-27T17:39:22.537Z,2.63
2023-02-27T17:40:22.548Z,2.61
2023-02-27T17:41:22.502Z,2.51
2023-02-27T17:42:22.496Z,2.59
2023-02-27T17:43:22.524Z,2.48
2023-02-27T17:44:22.550Z,2.61
2023-02-27T17:45:22.482Z,2.58
2023-02-27T17:46:22.493Z,2.55
2023-02-27T17:47:22.446Z,2.55
2023-02-27T17:48:22.428Z,2.53
2023-02-27T17:49:22.502Z,2.55
2023-02-27T17:50:22.452Z,2.55
2023-02-27T17:51:23.429Z,2.68
2023-02-27T17:52:22.405Z,2.58
2023-02-27T17:53:22.423Z,2.59
2023-02-27T17:54:22.353Z,2.51
2023-02-27T17:55:22.356Z,2.51
2023-02-27T17:56:22.363Z,2.51
2023-02-27T17:57:22.350Z,2.41
2023-02-27T17:58:22.364Z,2.37
2023-02-27T17:59:22.359Z,2.43
2023-02-27T18:00:22.325Z,2.37
2023-02-27T18:01:22.323Z,2.32
2023-02-27T18:02:22.362Z,2.38
2023-02-27T18:03:22.271Z,2.20
2023-02-27T18:04:22.268Z,2.29
2023-02-27T18:05:22.273Z,2.22
2023-02-27T18:06:22.263Z,2.20
2023-02-27T18:07:22.202Z,2.11
2023-02-27T18:08:22.221Z,2.19
2023-02-27T18:09:22.217Z,2.18
2023-02-27T18:10:22.201Z,2.15
2023-02-27T18:11:22.172Z,2.20
2023-02-27T18:12:22.155Z,2.19
2023-02-27T18:13:22.203Z,2.15
2023-02-27T18:14:22.147Z,2.12
2023-02-27T18:15:22.211Z,2.07
2023-02-27T18:16:22.133Z,2.01
2023-02-27T18:17:22.078Z,2.02
2023-02-27T18:18:22.224Z,2.07
2023-02-27T18:19:22.085Z,2.01
2023-02-27T18:20:22.120Z,2.11
2023-02-27T18:21:22.143Z,2.11
2023-02-27T18:22:22.112Z,2.19
2023-02-27T18:23:22.081Z,2.18
2023-02-27T18:24:22.056Z,2.18
2023-02-27T18:25:22.087Z,2.22